Terminal Aerodrome Forecast
Issued by NWS

Home | Current Version | Previous Version | Text Only | Print | Product List | Glossary On
Versions: 1 2 3 4 5 6 7 8 9 10 11 12 13 14
513
FTUS43 KTOP 251122
TAFMHK
TAF
KMHK 251122Z 2512/2612 16009KT P6SM SCT090 BKN130
     FM251600 19008KT P6SM BKN060
     FM252200 34012G22KT P6SM SCT007 OVC020
     FM252300 34012KT 5SM -SHRA SCT007 OVC020
     FM260300 35013KT 4SM -SHRA OVC007=

USA.gov is the U.S. government's official web portal to all federal, state and local government web resources and services.